createdAt,value
2022-11-25T00:00:49.337Z,9.80
2022-11-25T00:03:17.168Z,9.88
2022-11-25T00:05:45.439Z,12.23
2022-11-25T00:08:13.226Z,11.43
2022-11-25T00:10:42.426Z,10.63
2022-11-25T00:13:10.267Z,7.60
2022-11-25T00:15:38.150Z,11.20
2022-11-25T00:18:05.938Z,11.13
2022-11-25T00:20:33.724Z,8.02
2022-11-25T00:23:01.528Z,7.28
2022-11-25T00:25:29.429Z,7.28
2022-11-25T00:27:58.640Z,9.32
2022-11-25T00:30:26.426Z,9.95
2022-11-25T00:32:54.661Z,8.10
2022-11-25T00:35:22.528Z,11.70
2022-11-25T00:37:50.341Z,8.32
2022-11-25T00:40:18.397Z,9.48
2022-11-25T00:43:03.879Z,10.10
2022-11-25T00:45:33.140Z,12.27
2022-11-25T00:48:00.999Z,10.30
2022-11-25T00:50:28.875Z,9.80
2022-11-25T00:52:56.872Z,6.60
2022-11-25T00:55:24.704Z,9.95
2022-11-25T00:57:52.513Z,13.00
2022-11-25T01:00:20.948Z,11.68
2022-11-25T01:02:50.714Z,13.23
2022-11-25T01:05:18.517Z,14.77
2022-11-25T01:07:46.465Z,9.43
2022-11-25T01:10:14.576Z,15.43
2022-11-25T01:12:42.465Z,12.20
2022-11-25T01:15:11.162Z,13.35
2022-11-25T01:17:39.019Z,12.05
2022-11-25T01:20:09.827Z,11.00
2022-11-25T01:22:37.612Z,9.02
2022-11-25T01:25:05.969Z,9.60
2022-11-25T01:27:34.543Z,8.73
2022-11-25T01:30:02.354Z,11.30
2022-11-25T01:32:30.160Z,18.20
2022-11-25T01:34:58.081Z,11.25
2022-11-25T01:37:27.243Z,9.45
2022-11-25T01:39:55.114Z,13.18
2022-11-25T01:42:22.862Z,8.70
2022-11-25T01:45:29.819Z,8.57
2022-11-25T01:48:01.779Z,13.85
2022-11-25T01:50:31.237Z,10.00
2022-11-25T01:53:09.100Z,10.35
2022-11-25T01:55:41.322Z,16.60
2022-11-25T01:58:13.950Z,13.07
2022-11-25T02:00:42.218Z,7.63
2022-11-25T02:03:10.902Z,8.20
2022-11-25T02:05:43.878Z,8.30
2022-11-25T02:08:14.126Z,11.30
2022-11-25T02:10:44.664Z,8.75
2022-11-25T02:13:13.198Z,8.68
2022-11-25T02:15:41.155Z,8.45
2022-11-25T02:18:09.705Z,9.73
2022-11-25T02:20:40.189Z,9.07
2022-11-25T02:23:18.895Z,11.07
2022-11-25T02:25:49.185Z,7.53
2022-11-25T02:28:20.410Z,11.95
2022-11-25T02:30:49.379Z,9.90
2022-11-25T02:33:17.929Z,9.43
2022-11-25T02:35:49.068Z,10.70
2022-11-25T02:38:21.872Z,11.57
2022-11-25T02:40:55.677Z,9.77
2022-11-25T02:43:23.514Z,12.20
2022-11-25T02:45:59.211Z,10.77
2022-11-25T02:48:52.871Z,11.60
2022-11-25T02:51:19.071Z,11.35
2022-11-25T02:53:47.798Z,9.70
2022-11-25T02:56:18.362Z,11.75
2022-11-25T02:58:46.162Z,6.22
2022-11-25T03:01:14.139Z,15.07
2022-11-25T03:03:42.005Z,13.23
2022-11-25T03:06:10.840Z,8.60
2022-11-25T03:08:40.095Z,9.90
2022-11-25T03:11:11.198Z,12.18
2022-11-25T03:13:40.706Z,11.15
2022-11-25T03:18:37.603Z,10.40
2022-11-25T03:21:07.301Z,6.63
2022-11-25T03:23:36.090Z,11.18
2022-11-25T03:26:06.695Z,8.68
2022-11-25T03:28:34.556Z,13.52
2022-11-25T03:31:03.827Z,11.10
2022-11-25T03:33:31.731Z,11.18
2022-11-25T03:35:59.668Z,10.75
2022-11-25T03:38:28.680Z,9.95
2022-11-25T03:40:57.132Z,9.57
2022-11-25T03:43:25.435Z,15.52
2022-11-25T03:45:53.351Z,9.15
2022-11-25T03:48:22.590Z,8.43
2022-11-25T03:50:50.672Z,10.60
2022-11-25T03:53:18.496Z,12.90
2022-11-25T03:55:48.586Z,6.22
2022-11-25T03:58:18.450Z,7.60
2022-11-25T04:00:46.363Z,8.63
2022-11-25T04:03:14.165Z,10.15
2022-11-25T04:05:43.854Z,6.38
2022-11-25T04:08:11.781Z,10.68
2022-11-25T04:10:40.142Z,9.88
2022-11-25T04:13:08.796Z,8.35
2022-11-25T04:15:46.002Z,7.95
2022-11-25T04:18:14.731Z,11.70
2022-11-25T04:20:44.704Z,14.05
2022-11-25T04:23:14.039Z,11.68
2022-11-25T04:25:50.963Z,13.07
2022-11-25T04:28:25.909Z,10.20
2022-11-25T04:30:53.805Z,9.70
2022-11-25T04:33:21.989Z,11.93
2022-11-25T04:35:51.098Z,10.48
2022-11-25T04:38:18.972Z,15.13
2022-11-25T04:40:46.934Z,15.88
2022-11-25T04:43:19.206Z,7.40
2022-11-25T04:48:46.676Z,6.15
2022-11-25T04:51:17.628Z,9.83
2022-11-25T04:53:47.075Z,9.05
2022-11-25T04:56:19.727Z,9.30
2022-11-25T04:59:08.004Z,9.30
2022-11-25T05:01:39.593Z,12.20
2022-11-25T05:04:20.163Z,13.32
2022-11-25T05:06:51.639Z,10.30
2022-11-25T05:09:20.550Z,10.25
2022-11-25T05:11:57.009Z,9.55
2022-11-25T05:14:25.441Z,8.50
2022-11-25T05:16:54.244Z,12.20
2022-11-25T05:19:22.159Z,8.85
2022-11-25T05:21:51.871Z,7.97
2022-11-25T05:24:19.926Z,10.23
2022-11-25T05:26:50.265Z,9.40
2022-11-25T05:29:18.242Z,6.30
2022-11-25T05:31:46.390Z,8.00
2022-11-25T05:34:15.656Z,10.93
2022-11-25T05:36:45.218Z,13.13
2022-11-25T05:39:16.345Z,9.25
2022-11-25T05:44:41.783Z,12.90
2022-11-25T05:47:09.574Z,11.43
2022-11-25T05:49:39.766Z,9.65
2022-11-25T05:52:08.045Z,10.45
2022-11-25T05:54:45.566Z,16.30
2022-11-25T05:57:13.371Z,13.02
2022-11-25T05:59:48.337Z,10.60
2022-11-25T06:02:22.496Z,10.40
2022-11-25T06:04:51.955Z,12.70
2022-11-25T06:07:19.834Z,17.15
2022-11-25T06:09:51.926Z,14.88
2022-11-25T06:12:22.157Z,16.58
2022-11-25T06:14:51.743Z,17.65
2022-11-25T06:17:20.213Z,15.75
2022-11-25T06:19:53.515Z,17.77
2022-11-25T06:22:21.284Z,16.52
2022-11-25T06:24:57.520Z,15.48
2022-11-25T06:27:44.249Z,13.32
2022-11-25T06:30:18.950Z,13.45
2022-11-25T06:32:57.426Z,12.27
2022-11-25T06:35:25.296Z,10.85
2022-11-25T06:37:59.368Z,10.65
2022-11-25T06:42:56.817Z,9.88
2022-11-25T06:45:24.591Z,12.10
2022-11-25T06:47:52.597Z,9.05
2022-11-25T06:50:21.438Z,10.73
2022-11-25T06:52:49.216Z,11.85
2022-11-25T06:55:17.400Z,11.02
2022-11-25T06:57:45.188Z,10.13
2022-11-25T07:00:15.567Z,14.52
2022-11-25T07:05:16.920Z,12.43
2022-11-25T07:07:44.840Z,13.93
2022-11-25T07:10:12.783Z,12.23
2022-11-25T07:12:41.013Z,17.40
2022-11-25T07:15:09.258Z,12.68
2022-11-25T07:17:38.708Z,13.18
2022-11-25T07:20:08.160Z,11.47
2022-11-25T07:22:35.902Z,10.60
2022-11-25T07:25:04.075Z,10.57
2022-11-25T07:27:31.954Z,12.48
2022-11-25T07:30:41.102Z,11.50
2022-11-25T07:32:48.935Z,11.48
2022-11-25T07:35:16.915Z,9.82
2022-11-25T07:37:45.862Z,8.98
2022-11-25T07:40:14.962Z,10.98
2022-11-25T07:42:42.728Z,15.77
2022-11-25T07:45:11.126Z,11.15
2022-11-25T07:47:45.227Z,12.80
2022-11-25T07:50:15.507Z,8.75
2022-11-25T07:52:43.277Z,11.68
2022-11-25T07:55:11.167Z,9.02
2022-11-25T07:57:39.030Z,17.02
2022-11-25T08:00:08.638Z,15.73
2022-11-25T08:02:42.459Z,13.23
2022-11-25T08:05:10.922Z,20.08
2022-11-25T08:07:40.141Z,19.60
2022-11-25T08:10:08.820Z,18.23
2022-11-25T08:12:36.657Z,19.40
2022-11-25T08:15:04.613Z,21.92
2022-11-25T08:17:32.426Z,25.52
2022-11-25T08:20:00.235Z,17.67
2022-11-25T08:22:29.328Z,16.45
2022-11-25T08:24:58.523Z,19.23
2022-11-25T08:27:26.367Z,19.65
2022-11-25T08:29:54.185Z,16.38
2022-11-25T08:32:21.978Z,16.55
2022-11-25T08:34:49.768Z,13.23
2022-11-25T08:37:17.613Z,15.38
2022-11-25T08:39:53.743Z,16.38
2022-11-25T08:42:23.343Z,14.85
2022-11-25T08:44:53.835Z,13.38
2022-11-25T08:49:51.934Z,16.17
2022-11-25T08:52:19.975Z,13.73
2022-11-25T08:54:47.792Z,21.75
2022-11-25T08:57:16.014Z,18.42
2022-11-25T08:59:45.181Z,18.92
2022-11-25T09:02:16.145Z,14.90
2022-11-25T09:04:44.353Z,15.88
2022-11-25T09:07:12.383Z,13.85
2022-11-25T09:09:40.517Z,13.25
2022-11-25T09:12:08.549Z,17.38
2022-11-25T09:14:37.233Z,16.30
2022-11-25T09:17:11.053Z,16.55
2022-11-25T09:19:39.116Z,17.13
2022-11-25T09:22:08.061Z,16.27
2022-11-25T09:24:36.221Z,14.70
2022-11-25T09:27:04.217Z,11.98
2022-11-25T09:29:31.986Z,14.98
2022-11-25T09:31:59.827Z,15.85
2022-11-25T09:34:29.071Z,12.55
2022-11-25T09:36:56.916Z,13.27
2022-11-25T09:39:28.171Z,15.70
2022-11-25T09:42:31.656Z,14.25
2022-11-25T09:45:29.764Z,10.48
2022-11-25T09:48:07.125Z,12.98
2022-11-25T09:51:00.926Z,12.95
2022-11-25T09:53:41.301Z,9.15
2022-11-25T09:58:49.124Z,9.45
2022-11-25T10:01:20.302Z,12.95
2022-11-25T10:03:53.739Z,14.40
2022-11-25T10:06:26.211Z,10.98
2022-11-25T10:08:57.505Z,10.63
2022-11-25T10:11:39.559Z,12.20
2022-11-25T10:14:13.484Z,12.30
2022-11-25T10:16:51.722Z,12.73
2022-11-25T10:19:27.950Z,11.18
2022-11-25T10:21:57.200Z,11.23
2022-11-25T10:24:26.289Z,14.23
2022-11-25T10:26:59.713Z,13.63
2022-11-25T10:29:29.487Z,13.07
2022-11-25T10:32:12.439Z,10.25
2022-11-25T10:34:43.805Z,11.93
2022-11-25T10:37:23.622Z,10.57
2022-11-25T10:39:51.451Z,11.45
2022-11-25T10:42:22.942Z,11.48
2022-11-25T10:44:51.125Z,15.63
2022-11-25T10:47:37.201Z,18.88
2022-11-25T10:50:15.422Z,16.58
2022-11-25T10:52:50.157Z,14.55
2022-11-25T10:55:21.147Z,11.82
2022-11-25T10:57:49.023Z,15.65
2022-11-25T11:00:29.539Z,13.57
2022-11-25T11:05:29.843Z,12.35
2022-11-25T11:08:18.898Z,13.18
2022-11-25T11:10:49.529Z,17.33
2022-11-25T11:13:24.080Z,10.40
2022-11-25T11:15:53.127Z,13.18
2022-11-25T11:18:30.019Z,13.25
2022-11-25T11:20:59.987Z,12.45
2022-11-25T11:23:30.515Z,12.13
2022-11-25T11:28:32.946Z,11.50
2022-11-25T11:31:03.182Z,11.30
2022-11-25T11:33:37.953Z,16.48
2022-11-25T11:36:22.192Z,13.13
2022-11-25T11:38:55.337Z,14.15
2022-11-25T11:41:37.593Z,12.15
2022-11-25T11:44:13.434Z,12.15
2022-11-25T11:46:55.864Z,14.15
2022-11-25T11:49:40.942Z,15.60
2022-11-25T11:52:16.839Z,18.90
2022-11-25T11:54:51.620Z,16.65
2022-11-25T11:57:28.123Z,19.27
2022-11-25T11:59:56.765Z,20.88
2022-11-25T12:02:36.418Z,20.38
2022-11-25T12:05:14.816Z,24.73
2022-11-25T12:07:50.548Z,28.40
2022-11-25T12:10:28.446Z,23.73
2022-11-25T12:13:12.633Z,26.10
2022-11-25T12:15:45.284Z,34.13
2022-11-25T12:18:21.805Z,25.08
2022-11-25T12:20:58.691Z,27.27
2022-11-25T12:23:37.473Z,22.05
2022-11-25T12:26:12.548Z,20.45
2022-11-25T12:28:44.895Z,18.75
2022-11-25T12:31:18.075Z,22.20
2022-11-25T12:33:55.663Z,17.25
2022-11-25T12:36:30.608Z,14.32
2022-11-25T12:39:02.993Z,10.23
2022-11-25T12:41:40.823Z,11.38
2022-11-25T12:44:15.899Z,16.00
2022-11-25T12:46:46.458Z,17.90
2022-11-25T12:49:19.969Z,16.50
2022-11-25T12:52:02.909Z,15.77
2022-11-25T12:54:44.444Z,13.88
2022-11-25T12:57:58.128Z,12.80
2022-11-25T13:00:43.805Z,13.40
2022-11-25T13:03:39.076Z,17.67
2022-11-25T13:06:40.573Z,10.15
2022-11-25T13:09:19.748Z,9.15
2022-11-25T13:12:07.903Z,11.85
2022-11-25T13:14:59.777Z,9.90
2022-11-25T13:17:30.386Z,8.27
2022-11-25T13:22:41.396Z,7.70
2022-11-25T13:25:25.743Z,10.88
2022-11-25T13:28:01.164Z,8.13
2022-11-25T13:30:40.940Z,11.68
2022-11-25T13:33:42.055Z,12.32
2022-11-25T13:36:18.892Z,10.98
2022-11-25T13:39:00.501Z,7.78
2022-11-25T13:41:50.503Z,11.23
2022-11-25T13:44:23.576Z,5.78
2022-11-25T13:46:54.648Z,9.15
2022-11-25T13:49:38.702Z,13.93
2022-11-25T13:52:31.937Z,10.98
2022-11-25T13:55:01.513Z,9.43
2022-11-25T13:57:31.623Z,9.47
2022-11-25T14:00:02.029Z,11.48
2022-11-25T14:02:49.444Z,8.23
2022-11-25T14:05:46.671Z,9.63
2022-11-25T14:08:38.708Z,9.88
2022-11-25T14:11:37.063Z,11.93
2022-11-25T14:14:27.016Z,10.93
2022-11-25T14:17:08.084Z,9.02
2022-11-25T14:20:00.103Z,10.30
2022-11-25T14:22:43.752Z,11.23
2022-11-25T14:25:20.488Z,6.80
2022-11-25T14:27:51.767Z,9.30
2022-11-25T14:30:20.526Z,13.10
2022-11-25T14:32:56.070Z,17.95
2022-11-25T14:35:31.482Z,12.75
2022-11-25T14:38:04.292Z,6.88
2022-11-25T14:40:37.897Z,12.05
2022-11-25T14:43:09.199Z,11.48
2022-11-25T14:45:37.179Z,12.02
2022-11-25T14:48:14.988Z,15.63
2022-11-25T14:50:55.672Z,11.68
2022-11-25T14:53:23.900Z,8.85
2022-11-25T14:55:52.065Z,10.57
2022-11-25T14:58:20.545Z,17.05
2022-11-25T15:00:51.543Z,12.98
2022-11-25T15:03:21.289Z,12.57
2022-11-25T15:05:57.823Z,8.65
2022-11-25T15:08:27.474Z,8.25
2022-11-25T15:10:58.230Z,10.90
2022-11-25T15:13:32.068Z,10.85
2022-11-25T15:16:07.753Z,14.27
2022-11-25T15:18:37.239Z,15.07
2022-11-25T15:21:07.277Z,13.65
2022-11-25T15:23:39.015Z,17.70
2022-11-25T15:26:18.455Z,10.88
2022-11-25T15:28:47.151Z,18.40
2022-11-25T15:31:20.378Z,9.85
2022-11-25T15:33:54.274Z,12.27
2022-11-25T15:36:26.948Z,11.80
2022-11-25T15:38:54.995Z,12.55
2022-11-25T15:41:33.252Z,15.57
2022-11-25T15:44:03.634Z,12.73
2022-11-25T15:46:35.053Z,14.93
2022-11-25T15:49:06.643Z,16.58
2022-11-25T15:51:39.612Z,16.17
2022-11-25T15:54:16.483Z,15.95
2022-11-25T15:56:48.893Z,13.00
2022-11-25T15:59:40.478Z,15.48
2022-11-25T16:02:40.198Z,13.90
2022-11-25T16:05:31.729Z,10.73
2022-11-25T16:08:24.348Z,13.60
2022-11-25T16:10:55.873Z,10.80
2022-11-25T16:13:33.437Z,11.70
2022-11-25T16:16:09.805Z,12.57
2022-11-25T16:18:41.558Z,10.98
2022-11-25T16:21:12.809Z,13.90
2022-11-25T16:23:46.776Z,11.82
2022-11-25T16:26:17.522Z,13.95
2022-11-25T16:28:53.059Z,14.20
2022-11-25T16:31:21.195Z,12.07
2022-11-25T16:33:49.004Z,20.63
2022-11-25T16:36:17.099Z,9.93
2022-11-25T16:38:46.271Z,14.05
2022-11-25T16:41:21.967Z,9.23
2022-11-25T16:43:49.780Z,14.80
2022-11-25T16:46:19.843Z,12.73
2022-11-25T16:48:48.381Z,15.30
2022-11-25T16:51:17.511Z,11.65
2022-11-25T16:53:47.584Z,16.10
2022-11-25T16:56:17.197Z,9.23
2022-11-25T16:58:45.919Z,14.47
2022-11-25T17:01:16.906Z,12.52
2022-11-25T17:03:45.144Z,16.33
2022-11-25T17:06:21.338Z,12.68
2022-11-25T17:08:52.618Z,13.77
2022-11-25T17:11:25.652Z,13.50
2022-11-25T17:13:54.872Z,14.77
2022-11-25T17:16:24.737Z,17.85
2022-11-25T17:18:54.625Z,10.60
2022-11-25T17:21:26.790Z,11.88
2022-11-25T17:23:59.473Z,13.35
2022-11-25T17:26:39.417Z,12.30
2022-11-25T17:29:09.635Z,13.15
2022-11-25T17:31:38.941Z,20.50
2022-11-25T17:34:06.881Z,33.95
2022-11-25T17:36:34.849Z,17.45
2022-11-25T17:39:04.068Z,19.05
2022-11-25T17:41:36.753Z,16.98
2022-11-25T17:44:07.511Z,22.30
2022-11-25T17:46:35.980Z,16.75
2022-11-25T17:49:03.824Z,17.13
2022-11-25T17:51:31.613Z,29.05
2022-11-25T17:53:59.503Z,19.83
2022-11-25T17:56:32.418Z,20.27
2022-11-25T17:59:03.922Z,16.35
2022-11-25T18:01:32.350Z,14.05
2022-11-25T18:04:00.203Z,11.27
2022-11-25T18:06:28.037Z,19.25
2022-11-25T18:08:55.870Z,16.75
2022-11-25T18:11:23.863Z,16.85
2022-11-25T18:13:53.426Z,13.30
2022-11-25T18:16:23.856Z,12.43
2022-11-25T18:21:20.001Z,16.77
2022-11-25T18:23:47.820Z,19.88
2022-11-25T18:26:15.969Z,20.08
2022-11-25T18:28:43.849Z,20.42
2022-11-25T18:31:16.752Z,17.25
2022-11-25T18:33:44.699Z,19.70
2022-11-25T18:36:14.891Z,15.77
2022-11-25T18:38:42.703Z,19.55
2022-11-25T18:41:21.114Z,13.40
2022-11-25T18:43:48.964Z,19.95
2022-11-25T18:46:18.231Z,28.33
2022-11-25T18:48:46.057Z,33.90
2022-11-25T18:51:15.790Z,23.10
2022-11-25T18:53:43.630Z,80.65
2022-11-25T18:56:17.782Z,49.95
2022-11-25T18:58:50.805Z,78.28
2022-11-25T19:01:23.162Z,49.55
2022-11-25T19:03:51.197Z,27.55
2022-11-25T19:06:19.034Z,26.75
2022-11-25T19:08:46.889Z,21.27
2022-11-25T19:11:18.829Z,17.10
2022-11-25T19:13:50.792Z,22.05
2022-11-25T19:16:22.887Z,16.55
2022-11-25T19:18:50.929Z,21.83
2022-11-25T19:21:21.160Z,24.67
2022-11-25T19:23:49.814Z,30.92
2022-11-25T19:26:20.862Z,19.17
2022-11-25T19:28:51.217Z,16.63
2022-11-25T19:31:21.138Z,21.77
2022-11-25T19:33:52.162Z,20.33
2022-11-25T19:36:25.153Z,16.77
2022-11-25T19:38:53.791Z,18.35
2022-11-25T19:41:21.693Z,18.02
2022-11-25T19:43:49.866Z,24.60
2022-11-25T19:46:30.229Z,18.80
2022-11-25T19:49:06.205Z,18.20
2022-11-25T19:51:36.761Z,19.80
2022-11-25T19:54:04.910Z,22.90
2022-11-25T19:56:33.091Z,22.17
2022-11-25T19:59:00.883Z,17.63
2022-11-25T20:01:34.489Z,20.35
2022-11-25T20:04:03.435Z,22.30
2022-11-25T20:06:31.747Z,23.92
2022-11-25T20:09:06.545Z,21.13
2022-11-25T20:11:36.829Z,19.70
2022-11-25T20:14:04.933Z,26.63
2022-11-25T20:16:37.009Z,22.40
2022-11-25T20:19:06.948Z,23.83
2022-11-25T20:21:37.676Z,28.58
2022-11-25T20:24:11.610Z,27.40
2022-11-25T20:26:41.621Z,31.95
2022-11-25T20:29:16.438Z,23.77
2022-11-25T20:31:46.010Z,22.08
2022-11-25T20:34:14.051Z,22.70
2022-11-25T20:36:44.466Z,20.05
2022-11-25T20:41:45.172Z,18.45
2022-11-25T20:44:14.353Z,18.70
2022-11-25T20:46:42.275Z,20.08
2022-11-25T20:49:22.031Z,19.65
2022-11-25T20:51:50.343Z,23.88
2022-11-25T20:54:18.185Z,21.13
2022-11-25T20:56:45.971Z,22.17
2022-11-25T20:59:21.297Z,20.42
2022-11-25T21:01:49.357Z,23.17
2022-11-25T21:04:19.316Z,17.67
2022-11-25T21:06:47.493Z,33.88
2022-11-25T21:09:19.038Z,33.90
2022-11-25T21:11:47.190Z,34.00
2022-11-25T21:14:16.984Z,25.48
2022-11-25T21:16:45.103Z,26.42
2022-11-25T21:19:13.219Z,27.48
2022-11-25T21:21:45.738Z,25.92
2022-11-25T21:24:24.965Z,29.98
2022-11-25T21:26:53.247Z,24.17
2022-11-25T21:29:21.327Z,23.80
2022-11-25T21:31:49.278Z,26.70
2022-11-25T21:34:17.187Z,22.38
2022-11-25T21:36:49.364Z,21.60
2022-11-25T21:39:29.343Z,23.80
2022-11-25T21:42:00.363Z,20.23
2022-11-25T21:44:31.782Z,18.65
2022-11-25T21:46:59.805Z,30.65
2022-11-25T21:49:28.284Z,21.65
2022-11-25T21:51:57.704Z,23.88
2022-11-25T21:54:25.518Z,21.55
2022-11-25T21:56:53.375Z,22.95
2022-11-25T21:59:21.686Z,27.13
2022-11-25T22:01:49.588Z,25.15
2022-11-25T22:04:19.555Z,16.85
2022-11-25T22:06:48.505Z,18.83
2022-11-25T22:09:18.736Z,21.50
2022-11-25T22:11:48.871Z,21.27
2022-11-25T22:14:25.373Z,17.77
2022-11-25T22:16:53.298Z,23.08
2022-11-25T22:19:22.862Z,20.23
2022-11-25T22:21:50.717Z,20.13
2022-11-25T22:24:20.871Z,17.90
2022-11-25T22:26:56.036Z,17.10
2022-11-25T22:29:35.582Z,16.27
2022-11-25T22:32:09.629Z,20.42
2022-11-25T22:34:40.690Z,18.70
2022-11-25T22:37:16.872Z,23.38
2022-11-25T22:39:46.530Z,24.02
2022-11-25T22:42:19.098Z,24.47
2022-11-25T22:44:48.920Z,22.95
2022-11-25T22:47:22.747Z,19.48
2022-11-25T22:49:51.638Z,19.80
2022-11-25T22:52:22.219Z,17.77
2022-11-25T22:54:51.687Z,24.30
2022-11-25T22:57:19.822Z,22.05
2022-11-25T22:59:47.915Z,20.35
2022-11-25T23:02:20.680Z,25.42
2022-11-25T23:04:54.094Z,19.48
2022-11-25T23:07:22.608Z,18.45
2022-11-25T23:09:52.552Z,20.65
2022-11-25T23:12:20.767Z,24.55
2022-11-25T23:14:48.605Z,18.90
2022-11-25T23:17:20.290Z,19.23
2022-11-25T23:19:48.675Z,2.25
2022-11-25T23:22:16.571Z,0.10
2022-11-25T23:24:46.292Z,0.00
2022-11-25T23:27:16.403Z,0.10
2022-11-25T23:29:44.979Z,0.10
2022-11-25T23:32:18.566Z,0.20
2022-11-25T23:34:47.201Z,0.10
2022-11-25T23:37:15.821Z,0.10
2022-11-25T23:39:45.536Z,0.00
2022-11-25T23:42:18.089Z,0.10
2022-11-25T23:44:45.952Z,0.03
2022-11-25T23:47:18.801Z,0.10
2022-11-25T23:49:49.817Z,0.10
2022-11-25T23:52:21.093Z,0.10
2022-11-25T23:54:50.638Z,0.10
2022-11-25T23:57:22.597Z,0.10
2022-11-25T23:59:51.886Z,0.10
